Time;durP1;ratioP1;P1;durP2;ratioP2;P2;SDS_P1;SDS_P2;PMS_P1;PMS_P2;Temp;Humidity;BMP_temperature;BMP_pressure;BME280_temperature;BME280_humidity;BME280_pressure;Samples;Min_cycle;Max_cycle;Signal;HPM_P1;HPM_P2
2022/06/11 00:01:12;;;;;;;117.97;17.58;;;;;;;;;;5087691;28;20043;-48
2022/06/11 00:03:40;;;;;;;86.88;15.50;;;;;;;;;;5069094;28;20036;-51
2022/06/11 00:06:08;;;;;;;92.50;15.77;;;;;;;;;;5090238;28;20058;-49
2022/06/11 00:08:35;;;;;;;86.63;16.55;;;;;;;;;;5089126;28;20140;-49
2022/06/11 00:11:02;;;;;;;100.38;16.58;;;;;;;;;;5089385;28;20054;-46
2022/06/11 00:13:29;;;;;;;102.35;17.30;;;;;;;;;;5071075;28;20039;-53
2022/06/11 00:15:56;;;;;;;93.68;15.77;;;;;;;;;;5088638;28;20036;-47
2022/06/11 00:18:24;;;;;;;96.95;14.50;;;;;;;;;;5089111;28;20039;-49
2022/06/11 00:20:52;;;;;;;85.55;16.27;;;;;;;;;;5088299;28;20035;-49
2022/06/11 00:23:19;;;;;;;88.90;15.88;;;;;;;;;;5088321;28;20062;-52
2022/06/11 00:25:46;;;;;;;91.13;15.55;;;;;;;;;;5090151;28;20506;-46
2022/06/11 00:28:13;;;;;;;90.32;16.08;;;;;;;;;;5090957;28;20157;-46
2022/06/11 00:30:40;;;;;;;90.90;16.45;;;;;;;;;;5089105;28;20684;-48
2022/06/11 00:33:07;;;;;;;102.53;16.70;;;;;;;;;;5088443;28;20032;-48
2022/06/11 00:35:37;;;;;;;102.25;17.00;;;;;;;;;;5089491;28;20174;-50
2022/06/11 00:38:04;;;;;;;94.55;16.10;;;;;;;;;;5088364;28;20035;-53
2022/06/11 00:40:33;;;;;;;78.43;16.00;;;;;;;;;;5087483;28;20028;-51
2022/06/11 00:43:00;;;;;;;104.30;18.58;;;;;;;;;;5089428;28;20020;-47
2022/06/11 00:45:41;;;;;;;102.88;16.98;;;;;;;;;;5090125;28;20402;-51
2022/06/11 00:48:17;;;;;;;85.82;17.52;;;;;;;;;;5087601;28;20081;-51
2022/06/11 00:50:47;;;;;;;113.15;19.48;;;;;;;;;;5089934;28;20027;-47
2022/06/11 00:53:18;;;;;;;99.72;19.52;;;;;;;;;;5091275;28;20035;-47
2022/06/11 00:55:45;;;;;;;90.18;16.92;;;;;;;;;;5090358;28;20496;-48
2022/06/11 00:58:17;;;;;;;92.35;18.90;;;;;;;;;;5089159;28;20044;-50
2022/06/11 01:00:46;;;;;;;97.65;16.90;;;;;;;;;;5090635;28;20104;-49
2022/06/11 01:03:15;;;;;;;84.63;16.40;;;;;;;;;;5090728;28;20481;-54
2022/06/11 01:05:44;;;;;;;82.95;17.45;;;;;;;;;;5085607;28;20016;-52
2022/06/11 01:08:24;;;;;;;105.82;17.83;;;;;;;;;;5085364;28;20024;-48
2022/06/11 01:11:09;;;;;;;87.20;17.83;;;;;;;;;;5088195;28;20051;-51
2022/06/11 01:13:36;;;;;;;92.25;17.73;;;;;;;;;;5088485;28;20072;-55
2022/06/11 01:16:03;;;;;;;83.05;15.52;;;;;;;;;;5087604;28;20032;-53
2022/06/11 01:18:31;;;;;;;89.80;18.38;;;;;;;;;;5088515;28;20040;-49
2022/06/11 01:21:06;;;;;;;81.57;16.33;;;;;;;;;;5088506;28;20039;-53
2022/06/11 01:23:39;;;;;;;73.40;14.60;;;;;;;;;;5087376;28;20035;-47
2022/06/11 01:26:11;;;;;;;91.05;17.83;;;;;;;;;;5088453;28;20020;-49
2022/06/11 01:28:49;;;;;;;90.15;18.02;;;;;;;;;;5090677;28;20055;-49
2022/06/11 01:31:23;;;;;;;79.70;17.35;;;;;;;;;;5087889;28;20038;-47
2022/06/11 01:34:08;;;;;;;75.40;17.23;;;;;;;;;;5080271;28;20056;-53
2022/06/11 01:36:42;;;;;;;76.03;17.23;;;;;;;;;;5077385;28;20032;-51
2022/06/11 01:39:26;;;;;;;83.15;17.98;;;;;;;;;;5084197;28;20027;-51
2022/06/11 01:42:01;;;;;;;74.45;15.90;;;;;;;;;;5085966;28;20389;-49
2022/06/11 01:44:30;;;;;;;78.47;15.88;;;;;;;;;;5072690;28;20032;-49
2022/06/11 01:46:58;;;;;;;65.75;14.75;;;;;;;;;;5072025;28;20025;-47
2022/06/11 01:49:24;;;;;;;72.57;16.10;;;;;;;;;;5073035;28;20062;-50
2022/06/11 01:52:00;;;;;;;78.60;15.75;;;;;;;;;;5074463;28;20501;-48
2022/06/11 01:54:33;;;;;;;66.35;15.40;;;;;;;;;;5080395;28;20031;-49
2022/06/11 01:57:10;;;;;;;70.43;15.25;;;;;;;;;;5083668;28;20051;-51
2022/06/11 01:59:46;;;;;;;72.22;15.65;;;;;;;;;;5085181;28;21039;-52
2022/06/11 02:02:32;;;;;;;66.38;14.25;;;;;;;;;;5070308;28;20025;-52
2022/06/11 02:05:02;;;;;;;67.25;15.30;;;;;;;;;;5088493;28;20032;-46
2022/06/11 02:07:33;;;;;;;65.63;14.52;;;;;;;;;;5081523;28;20025;-51
2022/06/11 02:10:08;;;;;;;73.32;14.38;;;;;;;;;;5078774;28;20040;-50
2022/06/11 02:12:38;;;;;;;61.33;14.50;;;;;;;;;;5077414;28;20120;-47
2022/06/11 02:15:20;;;;;;;63.10;13.05;;;;;;;;;;5079029;28;20039;-51
2022/06/11 02:17:49;;;;;;;62.25;13.93;;;;;;;;;;5081177;28;20025;-50
2022/06/11 02:20:21;;;;;;;50.75;12.20;;;;;;;;;;5080318;28;20078;-49
2022/06/11 02:22:52;;;;;;;64.22;13.15;;;;;;;;;;5080568;28;20028;-49
2022/06/11 02:25:24;;;;;;;50.03;12.00;;;;;;;;;;5080801;28;20033;-52
2022/06/11 02:27:53;;;;;;;59.30;12.40;;;;;;;;;;5077836;28;20435;-49
2022/06/11 02:30:22;;;;;;;62.60;12.95;;;;;;;;;;5079917;28;20032;-51
2022/06/11 02:32:49;;;;;;;54.80;12.40;;;;;;;;;;5078757;28;20048;-51
2022/06/11 02:35:25;;;;;;;53.05;11.82;;;;;;;;;;5079409;28;20024;-46
2022/06/11 02:37:52;;;;;;;52.35;11.75;;;;;;;;;;5078824;28;20028;-50
2022/06/11 02:40:22;;;;;;;50.72;11.95;;;;;;;;;;5083728;28;20502;-48
2022/06/11 02:42:50;;;;;;;49.13;11.73;;;;;;;;;;5064796;28;20041;-48
2022/06/11 02:45:18;;;;;;;51.25;10.93;;;;;;;;;;5083103;28;20035;-50
2022/06/11 02:47:46;;;;;;;41.63;11.02;;;;;;;;;;5085025;28;20115;-49
2022/06/11 02:50:17;;;;;;;45.20;11.13;;;;;;;;;;5082608;28;20580;-48
2022/06/11 02:52:44;;;;;;;42.43;10.03;;;;;;;;;;5082422;28;20116;-51
2022/06/11 02:55:11;;;;;;;56.00;10.43;;;;;;;;;;5082488;28;20270;-52
2022/06/11 02:57:39;;;;;;;41.40;9.63;;;;;;;;;;5082839;28;20031;-49
2022/06/11 03:00:09;;;;;;;43.53;9.85;;;;;;;;;;5084734;28;20035;-47
2022/06/11 03:02:36;;;;;;;52.08;10.15;;;;;;;;;;5082193;28;20130;-52
2022/06/11 03:05:04;;;;;;;41.25;9.75;;;;;;;;;;5081807;28;20973;-45
2022/06/11 03:07:31;;;;;;;46.65;9.52;;;;;;;;;;5088458;28;20032;-47
2022/06/11 03:09:58;;;;;;;43.17;9.50;;;;;;;;;;5082078;28;20474;-46
2022/06/11 03:12:25;;;;;;;39.28;9.38;;;;;;;;;;5082985;28;20028;-46
2022/06/11 03:14:52;;;;;;;40.67;8.73;;;;;;;;;;5082433;28;20044;-46
2022/06/11 03:17:20;;;;;;;40.22;10.00;;;;;;;;;;5081543;28;20039;-46
2022/06/11 03:19:47;;;;;;;38.80;8.93;;;;;;;;;;5082679;28;20059;-53
2022/06/11 03:22:17;;;;;;;36.28;9.15;;;;;;;;;;5081647;28;20398;-47
2022/06/11 03:24:44;;;;;;;37.20;8.32;;;;;;;;;;5083400;28;20039;-46
2022/06/11 03:27:11;;;;;;;33.63;9.13;;;;;;;;;;5084230;28;20071;-49
2022/06/11 03:29:38;;;;;;;30.20;7.90;;;;;;;;;;5081789;28;20025;-48
2022/06/11 03:32:05;;;;;;;30.27;8.77;;;;;;;;;;5081763;28;20863;-46
2022/06/11 03:34:32;;;;;;;32.83;7.95;;;;;;;;;;5082993;28;20121;-45
2022/06/11 03:37:00;;;;;;;32.35;8.18;;;;;;;;;;5062447;28;20028;-45
2022/06/11 03:39:27;;;;;;;38.65;8.68;;;;;;;;;;5081812;28;20028;-46
2022/06/11 03:41:54;;;;;;;31.88;7.95;;;;;;;;;;5080687;28;20029;-50
2022/06/11 03:44:22;;;;;;;35.97;7.90;;;;;;;;;;5083635;28;20084;-47
2022/06/11 03:46:49;;;;;;;28.85;7.80;;;;;;;;;;5082358;28;20032;-45
2022/06/11 03:49:17;;;;;;;21.48;7.03;;;;;;;;;;5078614;28;20032;-46
2022/06/11 03:51:44;;;;;;;27.30;7.43;;;;;;;;;;5079513;28;20020;-47
2022/06/11 03:54:11;;;;;;;25.27;7.15;;;;;;;;;;5081746;28;20027;-47
2022/06/11 03:56:39;;;;;;;24.83;7.40;;;;;;;;;;5083759;28;20056;-45
2022/06/11 03:59:07;;;;;;;23.63;6.68;;;;;;;;;;5075006;28;20372;-45
2022/06/11 04:01:34;;;;;;;26.13;7.07;;;;;;;;;;5073861;28;20029;-48
2022/06/11 04:04:04;;;;;;;23.50;6.25;;;;;;;;;;5073531;28;20084;-46
2022/06/11 04:06:34;;;;;;;22.70;6.35;;;;;;;;;;5072701;28;20402;-50
2022/06/11 04:09:03;;;;;;;21.20;6.30;;;;;;;;;;5077961;28;20040;-45
2022/06/11 04:11:30;;;;;;;23.08;6.80;;;;;;;;;;5082818;28;20111;-46
2022/06/11 04:13:56;;;;;;;24.67;6.88;;;;;;;;;;5074041;28;20024;-48
2022/06/11 04:16:29;;;;;;;22.15;6.93;;;;;;;;;;5073801;28;20390;-49
2022/06/11 04:18:57;;;;;;;26.90;6.70;;;;;;;;;;5074902;28;20109;-46
2022/06/11 04:21:25;;;;;;;24.05;5.95;;;;;;;;;;5073685;28;20124;-45
2022/06/11 04:23:53;;;;;;;20.00;6.45;;;;;;;;;;5073624;28;20043;-45
2022/06/11 04:26:22;;;;;;;21.10;6.18;;;;;;;;;;5073244;28;20033;-45
2022/06/11 04:28:49;;;;;;;20.67;5.68;;;;;;;;;;5072849;28;20035;-47
2022/06/11 04:31:17;;;;;;;20.90;5.35;;;;;;;;;;5073359;28;20083;-45
2022/06/11 04:33:47;;;;;;;21.73;6.05;;;;;;;;;;5084473;28;20058;-45
2022/06/11 04:36:15;;;;;;;23.50;5.72;;;;;;;;;;5092585;28;20035;-45
2022/06/11 04:38:41;;;;;;;20.48;5.45;;;;;;;;;;5093484;28;20110;-46
2022/06/11 04:41:08;;;;;;;21.75;5.22;;;;;;;;;;5092656;28;20043;-45
2022/06/11 04:43:36;;;;;;;22.33;5.90;;;;;;;;;;5093028;28;20119;-46
2022/06/11 04:46:03;;;;;;;22.27;5.40;;;;;;;;;;5093275;28;20033;-45
2022/06/11 04:48:31;;;;;;;17.73;5.07;;;;;;;;;;5093252;28;20115;-46
2022/06/11 04:50:58;;;;;;;19.85;5.20;;;;;;;;;;5093048;28;20099;-45
2022/06/11 04:53:25;;;;;;;19.63;4.55;;;;;;;;;;5092906;28;20058;-47
2022/06/11 04:55:52;;;;;;;15.60;4.85;;;;;;;;;;5092610;28;20084;-45
2022/06/11 04:58:19;;;;;;;15.68;4.68;;;;;;;;;;5093156;28;20023;-45
2022/06/11 05:00:46;;;;;;;21.88;4.80;;;;;;;;;;5091759;28;20044;-45
2022/06/11 05:03:13;;;;;;;16.33;5.25;;;;;;;;;;5092177;28;20027;-45
2022/06/11 05:05:40;;;;;;;11.82;4.00;;;;;;;;;;5092125;28;20036;-45
2022/06/11 05:08:07;;;;;;;14.32;4.13;;;;;;;;;;5093059;28;20034;-45
2022/06/11 05:10:35;;;;;;;15.07;4.18;;;;;;;;;;5092278;28;20056;-45
2022/06/11 05:13:02;;;;;;;17.42;4.97;;;;;;;;;;5093120;28;20048;-44
2022/06/11 05:15:29;;;;;;;13.05;4.20;;;;;;;;;;5092218;28;20081;-47
2022/06/11 05:17:56;;;;;;;13.10;4.15;;;;;;;;;;5092756;28;20107;-45
2022/06/11 05:20:23;;;;;;;14.57;4.32;;;;;;;;;;5091995;28;20123;-50
2022/06/11 05:22:50;;;;;;;15.63;4.43;;;;;;;;;;5092243;28;20043;-45
2022/06/11 05:25:18;;;;;;;14.27;4.88;;;;;;;;;;5074816;28;20771;-45
2022/06/11 05:27:46;;;;;;;12.70;3.88;;;;;;;;;;5091612;28;20048;-47
2022/06/11 05:30:22;;;;;;;18.48;4.90;;;;;;;;;;5092239;28;20024;-45
2022/06/11 05:32:49;;;;;;;20.38;4.00;;;;;;;;;;5091695;28;20060;-49
2022/06/11 05:35:28;;;;;;;14.73;4.32;;;;;;;;;;5092823;28;20076;-45
2022/06/11 05:37:56;;;;;;;13.32;3.83;;;;;;;;;;5092063;28;20108;-45
2022/06/11 05:40:25;;;;;;;14.73;4.20;;;;;;;;;;5091509;28;20024;-48
2022/06/11 05:42:52;;;;;;;12.57;3.95;;;;;;;;;;5092373;28;20374;-46
2022/06/11 05:45:21;;;;;;;11.32;4.10;;;;;;;;;;5092150;28;20067;-45
2022/06/11 05:47:49;;;;;;;11.07;3.50;;;;;;;;;;5092185;28;20032;-45
2022/06/11 05:50:18;;;;;;;12.25;3.40;;;;;;;;;;5092268;28;20027;-44
2022/06/11 05:52:46;;;;;;;13.43;3.72;;;;;;;;;;5091682;28;20064;-46
2022/06/11 05:55:15;;;;;;;7.57;3.03;;;;;;;;;;5091830;28;20036;-45
2022/06/11 05:57:43;;;;;;;10.95;3.33;;;;;;;;;;5091893;28;20042;-47
2022/06/11 06:00:11;;;;;;;14.85;3.78;;;;;;;;;;5091924;28;20032;-45
2022/06/11 06:02:40;;;;;;;9.73;3.40;;;;;;;;;;5091928;28;20489;-48
2022/06/11 06:05:08;;;;;;;9.60;3.40;;;;;;;;;;5091735;28;20040;-45
2022/06/11 06:07:35;;;;;;;11.40;3.15;;;;;;;;;;5091676;28;20111;-45
2022/06/11 06:10:02;;;;;;;11.60;3.22;;;;;;;;;;5091932;28;20081;-45
2022/06/11 06:12:32;;;;;;;13.60;2.92;;;;;;;;;;5093896;28;20110;-45
2022/06/11 06:15:03;;;;;;;8.32;3.13;;;;;;;;;;5095686;28;20028;-45
2022/06/11 06:17:30;;;;;;;8.02;3.10;;;;;;;;;;5095538;28;20109;-46
2022/06/11 06:19:57;;;;;;;11.00;3.00;;;;;;;;;;5096020;28;20032;-45
2022/06/11 06:22:24;;;;;;;10.55;3.03;;;;;;;;;;5096161;28;20078;-45
2022/06/11 06:24:51;;;;;;;10.02;2.95;;;;;;;;;;5096275;28;20028;-46
2022/06/11 06:27:18;;;;;;;7.63;2.70;;;;;;;;;;5096158;28;20024;-46
2022/06/11 06:29:45;;;;;;;6.68;2.63;;;;;;;;;;5095014;28;20028;-46
2022/06/11 06:32:12;;;;;;;12.93;2.83;;;;;;;;;;5095934;28;20039;-45
2022/06/11 06:34:39;;;;;;;6.38;2.90;;;;;;;;;;5095330;28;20126;-45
2022/06/11 06:37:06;;;;;;;9.40;2.95;;;;;;;;;;5095767;28;20082;-45
2022/06/11 06:39:33;;;;;;;6.85;2.53;;;;;;;;;;5095098;28;20028;-46
2022/06/11 06:42:00;;;;;;;7.28;2.67;;;;;;;;;;5094971;28;20032;-49
2022/06/11 06:44:27;;;;;;;10.82;2.67;;;;;;;;;;5095674;28;20064;-46
2022/06/11 06:46:54;;;;;;;7.30;2.50;;;;;;;;;;5094944;28;20035;-46
2022/06/11 06:49:21;;;;;;;6.63;2.63;;;;;;;;;;5095698;28;20028;-45
2022/06/11 06:51:48;;;;;;;7.10;2.30;;;;;;;;;;5095468;28;20050;-45
2022/06/11 06:54:15;;;;;;;5.40;2.15;;;;;;;;;;5095384;28;20035;-46
2022/06/11 06:56:44;;;;;;;5.82;2.42;;;;;;;;;;5094941;28;20028;-48
2022/06/11 06:59:11;;;;;;;6.75;2.38;;;;;;;;;;5095437;28;20036;-48
2022/06/11 07:01:39;;;;;;;11.38;2.72;;;;;;;;;;5095548;28;20040;-47
2022/06/11 07:04:06;;;;;;;5.97;2.33;;;;;;;;;;5094404;28;20028;-45
2022/06/11 07:06:34;;;;;;;3.80;2.03;;;;;;;;;;5095254;28;20055;-49
2022/06/11 07:09:01;;;;;;;6.18;2.33;;;;;;;;;;5094518;28;20063;-45
2022/06/11 07:11:28;;;;;;;7.03;2.58;;;;;;;;;;5095359;28;20054;-47
2022/06/11 07:13:55;;;;;;;6.57;2.70;;;;;;;;;;5094528;28;20034;-46
2022/06/11 07:16:24;;;;;;;7.82;2.13;;;;;;;;;;5077018;28;20166;-46
2022/06/11 07:18:54;;;;;;;9.82;2.75;;;;;;;;;;5094948;28;20043;-48
2022/06/11 07:21:22;;;;;;;5.43;2.35;;;;;;;;;;5094611;28;20316;-46
2022/06/11 07:23:58;;;;;;;6.13;2.42;;;;;;;;;;5094319;28;20063;-46
2022/06/11 07:26:31;;;;;;;5.80;2.20;;;;;;;;;;5094549;28;20031;-48
2022/06/11 07:29:18;;;;;;;6.00;2.25;;;;;;;;;;5095049;28;20035;-46
2022/06/11 07:31:47;;;;;;;7.75;2.60;;;;;;;;;;5094438;28;20096;-47
2022/06/11 07:34:14;;;;;;;5.65;2.08;;;;;;;;;;5094478;28;20126;-45
2022/06/11 07:36:41;;;;;;;5.45;2.25;;;;;;;;;;5093848;28;20367;-50
2022/06/11 07:39:08;;;;;;;7.10;2.33;;;;;;;;;;5094744;28;20066;-48
2022/06/11 07:41:35;;;;;;;5.43;2.22;;;;;;;;;;5094716;28;20036;-46
2022/06/11 07:44:02;;;;;;;6.15;2.10;;;;;;;;;;5094513;28;20378;-46
2022/06/11 07:46:30;;;;;;;8.40;1.95;;;;;;;;;;5094332;28;20070;-46
2022/06/11 07:48:56;;;;;;;6.50;2.05;;;;;;;;;;5093641;28;20036;-48
2022/06/11 07:51:23;;;;;;;5.47;2.20;;;;;;;;;;5094654;28;20032;-48
2022/06/11 07:53:51;;;;;;;4.65;1.77;;;;;;;;;;5093752;28;20032;-48
2022/06/11 07:56:19;;;;;;;5.78;1.80;;;;;;;;;;5094423;28;20086;-48
2022/06/11 07:58:49;;;;;;;7.15;2.33;;;;;;;;;;5093431;28;20061;-49
2022/06/11 08:01:16;;;;;;;6.05;1.90;;;;;;;;;;5093936;28;20047;-45
2022/06/11 08:03:43;;;;;;;4.57;1.75;;;;;;;;;;5093602;28;20040;-46
2022/06/11 08:06:10;;;;;;;4.93;1.90;;;;;;;;;;5093877;28;20075;-45
2022/06/11 08:08:37;;;;;;;5.72;1.95;;;;;;;;;;5094003;28;20038;-45
2022/06/11 08:11:05;;;;;;;8.32;2.00;;;;;;;;;;5093328;28;20020;-45
2022/06/11 08:13:32;;;;;;;5.57;2.03;;;;;;;;;;5093858;28;20081;-46
2022/06/11 08:16:00;;;;;;;3.40;1.40;;;;;;;;;;5093740;28;20095;-45
2022/06/11 08:18:28;;;;;;;4.10;1.70;;;;;;;;;;5093611;28;20089;-46
2022/06/11 08:20:55;;;;;;;4.28;1.80;;;;;;;;;;5093721;28;20379;-46
2022/06/11 08:23:23;;;;;;;3.75;1.75;;;;;;;;;;5093443;28;20430;-46
2022/06/11 08:25:50;;;;;;;3.78;1.88;;;;;;;;;;5093992;28;20050;-48
2022/06/11 08:28:17;;;;;;;3.63;1.65;;;;;;;;;;5092897;28;20103;-46
2022/06/11 08:30:44;;;;;;;3.65;1.70;;;;;;;;;;5093400;28;20073;-45
2022/06/11 08:33:11;;;;;;;4.25;1.45;;;;;;;;;;5093409;28;20048;-48
2022/06/11 08:35:39;;;;;;;3.33;1.55;;;;;;;;;;5093657;28;20024;-45
2022/06/11 08:38:06;;;;;;;3.10;1.40;;;;;;;;;;5093148;28;20031;-45
2022/06/11 08:40:39;;;;;;;3.67;1.33;;;;;;;;;;5093402;28;20024;-45
2022/06/11 08:43:18;;;;;;;3.28;1.45;;;;;;;;;;5092767;28;20443;-45
2022/06/11 08:45:47;;;;;;;5.65;1.60;;;;;;;;;;5092755;28;20338;-48
2022/06/11 08:48:16;;;;;;;3.85;1.70;;;;;;;;;;5093261;28;20040;-45
2022/06/11 08:50:54;;;;;;;3.50;1.45;;;;;;;;;;5092882;28;20521;-46
2022/06/11 08:53:22;;;;;;;3.88;1.50;;;;;;;;;;5092215;28;20509;-48
2022/06/11 08:56:26;;;;;;;2.95;1.08;;;;;;;;;;5092000;28;20424;-50
2022/06/11 08:59:06;;;;;;;4.35;1.52;;;;;;;;;;5091257;28;20043;-45
2022/06/11 09:01:36;;;;;;;3.92;1.40;;;;;;;;;;5092365;28;20052;-48
2022/06/11 09:04:12;;;;;;;2.95;1.27;;;;;;;;;;5092963;28;20448;-49
2022/06/11 09:06:54;;;;;;;4.88;1.45;;;;;;;;;;5092224;28;20032;-46
2022/06/11 09:09:24;;;;;;;2.72;1.40;;;;;;;;;;5092983;28;20055;-46
2022/06/11 09:12:09;;;;;;;3.20;1.23;;;;;;;;;;5092474;28;20105;-46
2022/06/11 09:15:01;;;;;;;4.28;1.20;;;;;;;;;;5093008;28;20042;-48
2022/06/11 09:17:29;;;;;;;5.70;1.57;;;;;;;;;;5092568;28;20112;-49
2022/06/11 09:19:59;;;;;;;5.32;1.58;;;;;;;;;;5092767;28;20042;-46
2022/06/11 09:22:32;;;;;;;1.98;1.20;;;;;;;;;;5092170;28;20032;-45
2022/06/11 09:25:11;;;;;;;4.30;1.38;;;;;;;;;;5092624;28;20049;-46
2022/06/11 09:28:00;;;;;;;3.75;1.20;;;;;;;;;;5088976;28;20020;-47
2022/06/11 09:30:41;;;;;;;3.10;1.15;;;;;;;;;;5092114;28;20057;-47
2022/06/11 09:33:16;;;;;;;5.68;1.40;;;;;;;;;;5092126;28;20055;-46
2022/06/11 09:35:55;;;;;;;2.60;1.30;;;;;;;;;;5091861;28;20073;-48
2022/06/11 09:38:47;;;;;;;3.08;1.38;;;;;;;;;;5092538;28;20149;-46
2022/06/11 09:41:29;;;;;;;3.50;1.00;;;;;;;;;;5092304;28;20089;-45
2022/06/11 09:43:56;;;;;;;1.85;0.85;;;;;;;;;;5091771;28;20032;-45
2022/06/11 09:46:35;;;;;;;4.28;1.10;;;;;;;;;;5092276;28;20074;-45
2022/06/11 09:49:20;;;;;;;2.30;0.90;;;;;;;;;;5092021;28;20030;-46
2022/06/11 09:52:07;;;;;;;2.92;1.15;;;;;;;;;;5091700;28;20397;-47
2022/06/11 09:54:40;;;;;;;2.85;0.80;;;;;;;;;;5092533;28;20024;-45
2022/06/11 09:57:12;;;;;;;4.38;1.40;;;;;;;;;;5091534;28;20393;-47
2022/06/11 09:59:42;;;;;;;3.22;1.15;;;;;;;;;;5092421;28;20452;-47
2022/06/11 10:02:16;;;;;;;3.08;1.00;;;;;;;;;;5089185;28;20540;-46
2022/06/11 10:04:45;;;;;;;3.80;1.10;;;;;;;;;;5092106;28;20482;-46
2022/06/11 10:07:15;;;;;;;3.10;1.33;;;;;;;;;;5091801;28;20115;-46
2022/06/11 10:09:45;;;;;;;2.50;1.00;;;;;;;;;;5092406;28;20028;-45
2022/06/11 10:12:30;;;;;;;2.13;0.90;;;;;;;;;;5092111;28;20067;-45
2022/06/11 10:15:16;;;;;;;3.85;1.33;;;;;;;;;;5091695;28;20040;-46
2022/06/11 10:17:45;;;;;;;2.28;1.23;;;;;;;;;;5092297;28;20550;-46
2022/06/11 10:20:14;;;;;;;5.63;1.05;;;;;;;;;;5091311;28;20448;-46
2022/06/11 10:22:51;;;;;;;2.22;1.00;;;;;;;;;;5091901;28;20035;-48
2022/06/11 10:25:27;;;;;;;3.65;1.00;;;;;;;;;;5091722;28;20102;-46
2022/06/11 10:28:02;;;;;;;2.58;1.00;;;;;;;;;;5091932;28;20024;-46
2022/06/11 10:30:36;;;;;;;3.45;0.93;;;;;;;;;;5092087;28;20046;-45
2022/06/11 10:33:05;;;;;;;2.58;0.80;;;;;;;;;;5091098;28;20044;-45
2022/06/11 10:35:37;;;;;;;1.77;0.90;;;;;;;;;;5092122;28;20142;-45
2022/06/11 10:38:27;;;;;;;4.07;0.90;;;;;;;;;;5073295;28;20108;-46
2022/06/11 10:40:54;;;;;;;1.85;0.80;;;;;;;;;;5079255;28;20055;-45
2022/06/11 10:43:47;;;;;;;1.88;0.90;;;;;;;;;;5073871;28;20399;-46
2022/06/11 10:46:14;;;;;;;1.95;0.73;;;;;;;;;;5087346;28;20073;-48
2022/06/11 10:48:42;;;;;;;3.42;0.80;;;;;;;;;;5072836;28;20060;-45
2022/06/11 10:51:17;;;;;;;6.57;1.00;;;;;;;;;;5091954;28;20393;-46
2022/06/11 10:53:55;;;;;;;2.42;1.10;;;;;;;;;;5091424;28;20027;-45
2022/06/11 10:56:24;;;;;;;2.63;1.15;;;;;;;;;;5091720;28;20367;-47
2022/06/11 10:58:57;;;;;;;2.33;0.93;;;;;;;;;;5091395;28;20036;-45
2022/06/11 11:01:30;;;;;;;3.75;1.17;;;;;;;;;;5094856;28;20058;-46
2022/06/11 11:03:59;;;;;;;3.90;0.90;;;;;;;;;;5095530;28;20389;-45
2022/06/11 11:09:43;;;;;;;2.58;0.80;;;;;;;;;;5117073;28;20031;-46
2022/06/11 11:12:38;;;;;;;2.50;0.80;;;;;;;;;;5116921;28;20030;-46
2022/06/11 11:15:11;;;;;;;3.03;0.77;;;;;;;;;;5095109;28;20032;-46
2022/06/11 11:17:44;;;;;;;2.28;0.90;;;;;;;;;;5094098;28;20390;-45
2022/06/11 11:20:30;;;;;;;4.20;0.90;;;;;;;;;;5093546;28;20052;-46
2022/06/11 11:23:00;;;;;;;2.42;0.82;;;;;;;;;;5094652;28;20028;-47
2022/06/11 11:25:33;;;;;;;3.67;1.23;;;;;;;;;;5094399;28;20067;-46
2022/06/11 11:28:00;;;;;;;1.77;0.77;;;;;;;;;;5093779;28;20073;-46
2022/06/11 11:30:31;;;;;;;2.83;1.05;;;;;;;;;;5094696;28;20077;-47
2022/06/11 11:33:12;;;;;;;2.65;1.00;;;;;;;;;;5094309;28;20035;-47
2022/06/11 11:35:40;;;;;;;3.38;1.10;;;;;;;;;;5093877;28;20040;-46
2022/06/11 11:38:23;;;;;;;3.47;1.08;;;;;;;;;;5093781;28;20111;-45
2022/06/11 11:40:53;;;;;;;2.05;0.70;;;;;;;;;;5093942;28;20047;-46
2022/06/11 11:43:21;;;;;;;7.38;1.30;;;;;;;;;;5094105;28;20071;-46
2022/06/11 11:46:01;;;;;;;1.60;0.70;;;;;;;;;;5094245;28;20062;-47
2022/06/11 11:48:30;;;;;;;5.82;1.10;;;;;;;;;;5093116;28;20024;-46
2022/06/11 11:51:01;;;;;;;1.98;0.80;;;;;;;;;;5093994;28;20430;-48
2022/06/11 11:53:36;;;;;;;2.75;0.80;;;;;;;;;;5093757;28;20028;-45
2022/06/11 11:56:05;;;;;;;1.40;0.80;;;;;;;;;;5093735;28;20043;-47
2022/06/11 11:58:37;;;;;;;4.25;0.90;;;;;;;;;;5093505;28;20503;-46
2022/06/11 12:01:08;;;;;;;4.90;1.13;;;;;;;;;;5092149;28;20035;-49
2022/06/11 12:03:38;;;;;;;5.10;1.17;;;;;;;;;;5093732;28;20039;-45
2022/06/11 12:06:07;;;;;;;2.28;0.70;;;;;;;;;;5092026;28;20600;-49
2022/06/11 12:08:42;;;;;;;4.00;0.90;;;;;;;;;;5093500;28;20024;-46
2022/06/11 12:11:29;;;;;;;4.85;1.00;;;;;;;;;;5093774;28;20028;-51
2022/06/11 12:14:01;;;;;;;3.00;0.82;;;;;;;;;;5108816;28;20047;-48
2022/06/11 12:19:45;;;;;;;2.72;0.93;;;;;;;;;;5106501;28;20054;-46
2022/06/11 12:22:19;;;;;;;3.67;1.10;;;;;;;;;;5113067;28;20027;-46
2022/06/11 12:24:49;;;;;;;3.17;0.90;;;;;;;;;;5113293;28;20059;-51
2022/06/11 12:27:26;;;;;;;2.88;1.30;;;;;;;;;;5094075;28;20038;-49
2022/06/11 12:29:56;;;;;;;6.28;1.25;;;;;;;;;;5092902;28;20643;-45
2022/06/11 12:32:27;;;;;;;3.47;1.23;;;;;;;;;;5092797;28;20059;-48
2022/06/11 12:34:54;;;;;;;4.35;1.48;;;;;;;;;;5092651;28;20055;-45
2022/06/11 12:37:21;;;;;;;5.03;1.35;;;;;;;;;;5092903;28;20024;-47
2022/06/11 12:39:57;;;;;;;3.58;1.10;;;;;;;;;;5092424;28;20024;-45
2022/06/11 12:42:32;;;;;;;4.35;1.42;;;;;;;;;;5092461;28;20055;-49
2022/06/11 12:44:59;;;;;;;2.75;1.17;;;;;;;;;;5092331;28;20060;-49
2022/06/11 12:47:35;;;;;;;2.92;1.10;;;;;;;;;;5092356;28;20032;-45
2022/06/11 12:50:11;;;;;;;5.20;1.13;;;;;;;;;;5092216;28;20095;-45
2022/06/11 12:52:45;;;;;;;4.18;1.15;;;;;;;;;;5074905;28;20051;-46
2022/06/11 12:55:15;;;;;;;3.15;1.10;;;;;;;;;;5098739;28;20393;-45
2022/06/11 12:57:51;;;;;;;3.92;1.40;;;;;;;;;;5111115;28;20027;-45
2022/06/11 13:00:24;;;;;;;3.85;1.23;;;;;;;;;;5108584;28;20684;-46
2022/06/11 13:03:00;;;;;;;5.10;1.20;;;;;;;;;;5085439;28;20047;-47
2022/06/11 13:05:46;;;;;;;2.95;1.00;;;;;;;;;;5088491;28;20465;-48
2022/06/11 13:08:36;;;;;;;4.18;1.50;;;;;;;;;;5088439;28;20020;-47
2022/06/11 13:11:21;;;;;;;5.35;1.48;;;;;;;;;;5044112;28;20036;-45
2022/06/11 13:14:03;;;;;;;2.80;1.35;;;;;;;;;;5070430;28;20059;-45
2022/06/11 13:16:50;;;;;;;2.47;1.27;;;;;;;;;;5083641;28;20032;-45
2022/06/11 13:19:35;;;;;;;3.80;1.10;;;;;;;;;;5088745;28;20099;-45
2022/06/11 13:22:11;;;;;;;6.53;1.58;;;;;;;;;;5072291;28;20055;-45
2022/06/11 13:25:03;;;;;;;2.75;1.00;;;;;;;;;;5089235;28;20485;-46
2022/06/11 13:27:30;;;;;;;3.28;1.05;;;;;;;;;;5092417;28;20024;-45
2022/06/11 13:30:12;;;;;;;3.25;1.33;;;;;;;;;;5092611;28;20020;-47
2022/06/11 13:33:01;;;;;;;3.03;1.30;;;;;;;;;;5091340;28;20016;-45
2022/06/11 13:35:46;;;;;;;6.43;1.20;;;;;;;;;;5081379;28;20037;-45
2022/06/11 13:38:32;;;;;;;4.72;1.08;;;;;;;;;;5081622;28;20390;-45
2022/06/11 13:41:01;;;;;;;3.75;1.38;;;;;;;;;;5082516;28;20028;-46
2022/06/11 13:43:44;;;;;;;6.35;1.20;;;;;;;;;;5082130;28;20074;-46
2022/06/11 13:46:15;;;;;;;3.53;1.20;;;;;;;;;;5071615;28;20111;-45
2022/06/11 13:49:01;;;;;;;3.38;1.10;;;;;;;;;;5076419;28;20048;-46
2022/06/11 13:51:29;;;;;;;5.43;1.20;;;;;;;;;;5084424;28;20109;-45
2022/06/11 13:57:02;;;;;;;3.10;0.90;;;;;;;;;;5071884;28;20044;-45
2022/06/11 13:59:31;;;;;;;4.43;1.00;;;;;;;;;;5053581;28;20102;-46
2022/06/11 14:02:16;;;;;;;6.85;1.52;;;;;;;;;;5071292;28;20040;-44
2022/06/11 14:04:48;;;;;;;5.32;1.10;;;;;;;;;;5087060;28;20035;-48
2022/06/11 14:07:22;;;;;;;4.83;1.23;;;;;;;;;;5092071;28;20073;-45
2022/06/11 14:10:24;;;;;;;3.72;1.40;;;;;;;;;;5091684;28;20768;-45
2022/06/11 14:13:11;;;;;;;5.05;1.20;;;;;;;;;;5092288;28;20466;-46
2022/06/11 14:15:51;;;;;;;2.95;1.02;;;;;;;;;;5082519;28;20025;-45
2022/06/11 14:18:22;;;;;;;2.40;1.02;;;;;;;;;;5074466;28;20116;-45
2022/06/11 14:21:06;;;;;;;2.90;1.13;;;;;;;;;;5091041;28;20051;-45
2022/06/11 14:23:34;;;;;;;5.00;1.30;;;;;;;;;;5091363;28;20046;-45
2022/06/11 14:26:06;;;;;;;5.35;1.45;;;;;;;;;;5079784;28;20041;-45
2022/06/11 14:28:36;;;;;;;4.68;1.17;;;;;;;;;;5079690;28;20040;-45
2022/06/11 14:31:03;;;;;;;3.47;1.15;;;;;;;;;;5086830;28;20392;-45
2022/06/11 14:33:34;;;;;;;5.93;1.02;;;;;;;;;;5086164;28;20040;-45
2022/06/11 14:36:05;;;;;;;8.30;1.15;;;;;;;;;;5105268;28;20469;-46
2022/06/11 14:41:49;;;;;;;2.65;1.10;;;;;;;;;;5079235;28;20234;-48
2022/06/11 14:44:19;;;;;;;5.30;1.13;;;;;;;;;;5082657;28;20489;-47
2022/06/11 14:46:47;;;;;;;8.02;0.95;;;;;;;;;;5094358;28;20039;-47
2022/06/11 14:49:14;;;;;;;4.25;1.00;;;;;;;;;;5093160;28;20398;-45
2022/06/11 14:51:44;;;;;;;5.38;0.90;;;;;;;;;;5078800;28;20025;-53
2022/06/11 14:54:11;;;;;;;2.65;0.98;;;;;;;;;;5076389;28;20386;-53
2022/06/11 14:56:44;;;;;;;5.30;0.95;;;;;;;;;;5090651;28;20023;-52
2022/06/11 14:59:29;;;;;;;8.60;1.00;;;;;;;;;;5094351;28;20024;-52
2022/06/11 15:01:56;;;;;;;6.82;1.30;;;;;;;;;;5094037;28;20036;-51
2022/06/11 15:04:23;;;;;;;5.50;1.05;;;;;;;;;;5094277;28;20547;-52
2022/06/11 15:07:00;;;;;;;4.78;1.02;;;;;;;;;;5094209;28;20038;-51
2022/06/11 15:09:45;;;;;;;6.47;1.17;;;;;;;;;;5084950;28;20020;-51
2022/06/11 15:12:26;;;;;;;8.93;1.20;;;;;;;;;;5073825;28;20143;-51